Terminal Aerodrome Forecast
Issued by NWS Charleston, WV

Home | Current Version | Previous Version | Text Only | Print | Product List | Glossary On
Versions: 1 2 3 4 5 6 7 8 9 10 11 12 13 14 15 16 17 18 19 20 21
000
FTUS41 KRLX 200200 AAA
TAFEKN
TAF AMD
KEKN 200256Z 2003/2024 31004KT P6SM OVC013
     FM201000 00000KT P6SM BKN025
     FM201500 VRB03KT P6SM BKN040=

USA.gov is the U.S. government's official web portal to all federal, state and local government web resources and services.